sensor_id;sensor_type;location;lat;lon;timestamp;pressure;altitude;pressure_sealevel;temperature;humidity
74936;BME280;63501;55.570;37.488;2022-12-18T00:03:55;98400.34;;;-4.78;86.82
74936;BME280;63501;55.570;37.488;2022-12-18T00:06:22;98393.03;;;-4.78;87.44
74936;BME280;63501;55.570;37.488;2022-12-18T00:08:49;98401.47;;;-4.79;87.21
74936;BME280;63501;55.570;37.488;2022-12-18T00:11:20;98389.41;;;-4.82;87.17
74936;BME280;63501;55.570;37.488;2022-12-18T00:13:47;98391.31;;;-4.82;87.19
74936;BME280;63501;55.570;37.488;2022-12-18T00:16:16;98383.22;;;-4.82;86.49
74936;BME280;63501;55.570;37.488;2022-12-18T00:18:43;98383.22;;;-4.82;87.41
74936;BME280;63501;55.570;37.488;2022-12-18T00:21:11;98381.00;;;-4.80;86.99
74936;BME280;63501;55.570;37.488;2022-12-18T00:23:38;98378.31;;;-4.80;86.68
74936;BME280;63501;55.570;37.488;2022-12-18T00:26:07;98374.81;;;-4.81;87.23
74936;BME280;63501;55.570;37.488;2022-12-18T00:28:34;98376.22;;;-4.83;86.87
74936;BME280;63501;55.570;37.488;2022-12-18T00:31:26;98361.16;;;-4.84;86.81
74936;BME280;63501;55.570;37.488;2022-12-18T00:33:54;98358.81;;;-4.86;87.18
74936;BME280;63501;55.570;37.488;2022-12-18T00:36:22;98347.22;;;-4.86;87.22
74936;BME280;63501;55.570;37.488;2022-12-18T00:38:48;98352.78;;;-4.91;86.95
74936;BME280;63501;55.570;37.488;2022-12-18T00:41:15;98350.06;;;-4.91;87.07
74936;BME280;63501;55.570;37.488;2022-12-18T00:44:02;98338.50;;;-4.92;86.99
74936;BME280;63501;55.570;37.488;2022-12-18T00:46:29;98341.97;;;-4.91;87.13
74936;BME280;63501;55.570;37.488;2022-12-18T00:48:54;98319.63;;;-4.92;86.98
74936;BME280;63501;55.570;37.488;2022-12-18T00:51:20;98326.28;;;-4.89;86.97
74936;BME280;63501;55.570;37.488;2022-12-18T00:53:46;98308.53;;;-4.90;87.05
74936;BME280;63501;55.570;37.488;2022-12-18T00:56:11;98313.13;;;-4.91;87.48
74936;BME280;63501;55.570;37.488;2022-12-18T00:58:37;98305.81;;;-4.90;87.21
74936;BME280;63501;55.570;37.488;2022-12-18T01:01:06;98304.72;;;-4.89;87.19
74936;BME280;63501;55.570;37.488;2022-12-18T01:03:32;98301.53;;;-4.91;87.39
74936;BME280;63501;55.570;37.488;2022-12-18T01:05:58;98295.03;;;-4.90;86.76
74936;BME280;63501;55.570;37.488;2022-12-18T01:08:24;98302.00;;;-4.89;87.57
74936;BME280;63501;55.570;37.488;2022-12-18T01:10:50;98296.16;;;-4.91;87.58
74936;BME280;63501;55.570;37.488;2022-12-18T01:13:16;98300.75;;;-4.92;87.23
74936;BME280;63501;55.570;37.488;2022-12-18T01:15:49;98305.34;;;-4.92;87.15
74936;BME280;63501;55.570;37.488;2022-12-18T01:18:14;98294.09;;;-4.94;87.24
74936;BME280;63501;55.570;37.488;2022-12-18T01:20:40;98311.88;;;-4.93;86.85
74936;BME280;63501;55.570;37.488;2022-12-18T01:23:06;98300.25;;;-4.94;86.50
74936;BME280;63501;55.570;37.488;2022-12-18T01:25:31;98302.50;;;-4.96;86.89
74936;BME280;63501;55.570;37.488;2022-12-18T01:27:57;98295.38;;;-4.92;86.72
74936;BME280;63501;55.570;37.488;2022-12-18T01:30:22;98302.66;;;-4.92;87.11
74936;BME280;63501;55.570;37.488;2022-12-18T01:32:48;98287.59;;;-4.93;87.53
74936;BME280;63501;55.570;37.488;2022-12-18T01:35:14;98296.94;;;-4.91;86.97
74936;BME280;63501;55.570;37.488;2022-12-18T01:37:39;98291.38;;;-4.94;86.86
74936;BME280;63501;55.570;37.488;2022-12-18T01:40:06;98290.75;;;-4.91;87.06
74936;BME280;63501;55.570;37.488;2022-12-18T01:42:31;98293.47;;;-4.91;87.11
74936;BME280;63501;55.570;37.488;2022-12-18T01:44:58;98298.84;;;-4.91;87.52
74936;BME280;63501;55.570;37.488;2022-12-18T01:47:34;98290.75;;;-4.91;86.85
74936;BME280;63501;55.570;37.488;2022-12-18T01:50:09;98293.47;;;-4.91;87.19
74936;BME280;63501;55.570;37.488;2022-12-18T01:52:36;98299.63;;;-4.91;86.75
74936;BME280;63501;55.570;37.488;2022-12-18T01:55:06;98303.91;;;-4.90;87.15
74936;BME280;63501;55.570;37.488;2022-12-18T01:57:32;98289.47;;;-4.94;87.28
74936;BME280;63501;55.570;37.488;2022-12-18T02:00:06;98286.50;;;-4.92;87.12
74936;BME280;63501;55.570;37.488;2022-12-18T02:02:32;98283.13;;;-4.89;87.32
74936;BME280;63501;55.570;37.488;2022-12-18T02:04:58;98286.50;;;-4.92;87.43
74936;BME280;63501;55.570;37.488;2022-12-18T02:10:35;98295.38;;;-4.92;86.89
74936;BME280;63501;55.570;37.488;2022-12-18T02:13:13;98283.47;;;-4.91;86.74
74936;BME280;63501;55.570;37.488;2022-12-18T02:18:47;98281.41;;;-4.94;87.25
74936;BME280;63501;55.570;37.488;2022-12-18T02:21:36;98282.50;;;-4.95;86.93
74936;BME280;63501;55.570;37.488;2022-12-18T02:27:05;98279.03;;;-4.95;87.16
74936;BME280;63501;55.570;37.488;2022-12-18T02:29:41;98278.88;;;-4.99;87.06
74936;BME280;63501;55.570;37.488;2022-12-18T02:32:14;98284.75;;;-4.97;87.17
74936;BME280;63501;55.570;37.488;2022-12-18T02:34:43;98287.44;;;-4.97;87.08
74936;BME280;63501;55.570;37.488;2022-12-18T02:37:12;98276.97;;;-4.98;87.27
74936;BME280;63501;55.570;37.488;2022-12-18T02:39:41;98281.09;;;-5.01;87.30
74936;BME280;63501;55.570;37.488;2022-12-18T02:42:08;98303.59;;;-4.97;86.97
74936;BME280;63501;55.570;37.488;2022-12-18T02:44:41;98283.94;;;-4.97;87.05
74936;BME280;63501;55.570;37.488;2022-12-18T02:47:10;98285.84;;;-4.98;86.50
74936;BME280;63501;55.570;37.488;2022-12-18T02:53:06;98281.88;;;-5.00;86.93
74936;BME280;63501;55.570;37.488;2022-12-18T03:01:16;98277.13;;;-5.03;86.91
74936;BME280;63501;55.570;37.488;2022-12-18T03:04:30;98277.44;;;-5.05;87.05
74936;BME280;63501;55.570;37.488;2022-12-18T03:07:02;98272.03;;;-5.05;86.77
74936;BME280;63501;55.570;37.488;2022-12-18T03:09:36;98281.25;;;-5.06;87.03
74936;BME280;63501;55.570;37.488;2022-12-18T03:12:12;98277.91;;;-5.12;87.39
74936;BME280;63501;55.570;37.488;2022-12-18T03:15:01;98276.97;;;-5.07;86.26
74936;BME280;63501;55.570;37.488;2022-12-18T03:17:32;98266.84;;;-5.10;87.01
74936;BME280;63501;55.570;37.488;2022-12-18T03:20:02;98275.22;;;-5.12;86.82
74936;BME280;63501;55.570;37.488;2022-12-18T03:22:32;98277.44;;;-5.14;87.13
74936;BME280;63501;55.570;37.488;2022-12-18T03:25:00;98290.91;;;-5.14;86.38
74936;BME280;63501;55.570;37.488;2022-12-18T03:27:31;98288.53;;;-5.15;86.59
74936;BME280;63501;55.570;37.488;2022-12-18T03:30:08;98292.03;;;-5.15;86.46
74936;BME280;63501;55.570;37.488;2022-12-18T03:32:50;98281.53;;;-5.16;86.59
74936;BME280;63501;55.570;37.488;2022-12-18T03:35:21;98274.91;;;-5.19;86.43
74936;BME280;63501;55.570;37.488;2022-12-18T03:37:48;98280.28;;;-5.19;86.77
74936;BME280;63501;55.570;37.488;2022-12-18T03:40:14;98277.91;;;-5.20;86.49
74936;BME280;63501;55.570;37.488;2022-12-18T03:42:57;98268.56;;;-5.23;86.32
74936;BME280;63501;55.570;37.488;2022-12-18T03:45:32;98270.16;;;-5.22;86.53
74936;BME280;63501;55.570;37.488;2022-12-18T03:48:07;98285.03;;;-5.24;86.68
74936;BME280;63501;55.570;37.488;2022-12-18T03:53:36;98293.44;;;-5.26;86.11
74936;BME280;63501;55.570;37.488;2022-12-18T03:56:07;98295.66;;;-5.28;86.18
74936;BME280;63501;55.570;37.488;2022-12-18T03:58:36;98299.78;;;-5.30;85.75
74936;BME280;63501;55.570;37.488;2022-12-18T04:01:08;98291.22;;;-5.33;85.95
74936;BME280;63501;55.570;37.488;2022-12-18T04:03:35;98301.03;;;-5.37;86.61
74936;BME280;63501;55.570;37.488;2022-12-18T04:06:01;98305.63;;;-5.37;85.80
74936;BME280;63501;55.570;37.488;2022-12-18T04:08:28;98318.78;;;-5.36;86.39
74936;BME280;63501;55.570;37.488;2022-12-18T04:10:54;98329.56;;;-5.36;86.27
74936;BME280;63501;55.570;37.488;2022-12-18T04:13:24;98339.88;;;-5.38;85.87
74936;BME280;63501;55.570;37.488;2022-12-18T04:15:52;98338.56;;;-5.40;86.76
74936;BME280;63501;55.570;37.488;2022-12-18T04:18:19;98340.16;;;-5.39;86.54
74936;BME280;63501;55.570;37.488;2022-12-18T04:20:44;98340.16;;;-5.39;86.59
74936;BME280;63501;55.570;37.488;2022-12-18T04:23:10;98347.75;;;-5.41;86.82
74936;BME280;63501;55.570;37.488;2022-12-18T04:25:36;98363.13;;;-5.42;86.96
74936;BME280;63501;55.570;37.488;2022-12-18T04:28:01;98363.13;;;-5.42;87.06
74936;BME280;63501;55.570;37.488;2022-12-18T04:30:27;98373.13;;;-5.42;86.89
74936;BME280;63501;55.570;37.488;2022-12-18T04:32:52;98376.94;;;-5.43;87.28
74936;BME280;63501;55.570;37.488;2022-12-18T04:35:18;98377.84;;;-5.48;86.37
74936;BME280;63501;55.570;37.488;2022-12-18T04:37:44;98376.28;;;-5.49;86.35
74936;BME280;63501;55.570;37.488;2022-12-18T04:40:10;98368.97;;;-5.48;86.46
74936;BME280;63501;55.570;37.488;2022-12-18T04:42:35;98374.69;;;-5.50;86.79
74936;BME280;63501;55.570;37.488;2022-12-18T04:45:01;98383.56;;;-5.49;86.54
74936;BME280;63501;55.570;37.488;2022-12-18T04:47:28;98387.84;;;-5.48;87.36
74936;BME280;63501;55.570;37.488;2022-12-18T04:49:54;98384.66;;;-5.50;86.57
74936;BME280;63501;55.570;37.488;2022-12-18T04:52:19;98377.38;;;-5.50;86.90
74936;BME280;63501;55.570;37.488;2022-12-18T04:54:45;98373.88;;;-5.50;86.75
74936;BME280;63501;55.570;37.488;2022-12-18T04:57:12;98375.78;;;-5.51;86.78
74936;BME280;63501;55.570;37.488;2022-12-18T04:59:38;98369.59;;;-5.51;86.06
74936;BME280;63501;55.570;37.488;2022-12-18T05:02:03;98386.88;;;-5.52;86.64
74936;BME280;63501;55.570;37.488;2022-12-18T05:04:29;98388.28;;;-5.55;86.12
74936;BME280;63501;55.570;37.488;2022-12-18T05:06:54;98397.16;;;-5.54;86.61
74936;BME280;63501;55.570;37.488;2022-12-18T05:09:20;98407.16;;;-5.55;86.61
74936;BME280;63501;55.570;37.488;2022-12-18T05:14:16;98393.97;;;-5.56;86.57
74936;BME280;63501;55.570;37.488;2022-12-18T05:16:42;98405.84;;;-5.57;86.19
74936;BME280;63501;55.570;37.488;2022-12-18T05:19:10;98420.44;;;-5.59;86.79
74936;BME280;63501;55.570;37.488;2022-12-18T05:21:36;98434.22;;;-5.60;86.08
74936;BME280;63501;55.570;37.488;2022-12-18T05:24:02;98437.69;;;-5.60;86.38
74936;BME280;63501;55.570;37.488;2022-12-18T05:26:27;98436.09;;;-5.61;86.07
74936;BME280;63501;55.570;37.488;2022-12-18T05:28:56;98436.91;;;-5.60;86.90
74936;BME280;63501;55.570;37.488;2022-12-18T05:31:21;98453.06;;;-5.60;85.61
74936;BME280;63501;55.570;37.488;2022-12-18T05:33:47;98444.19;;;-5.61;85.55
74936;BME280;63501;55.570;37.488;2022-12-18T05:36:13;98456.69;;;-5.65;86.49
74936;BME280;63501;55.570;37.488;2022-12-18T05:38:39;98460.63;;;-5.62;86.08
74936;BME280;63501;55.570;37.488;2022-12-18T05:41:05;98460.16;;;-5.64;86.14
74936;BME280;63501;55.570;37.488;2022-12-18T05:43:33;98465.22;;;-5.63;86.49
74936;BME280;63501;55.570;37.488;2022-12-18T05:46:07;98468.72;;;-5.62;86.23
74936;BME280;63501;55.570;37.488;2022-12-18T05:48:33;98472.03;;;-5.65;85.99
74936;BME280;63501;55.570;37.488;2022-12-18T05:51:04;98475.84;;;-5.66;86.42
74936;BME280;63501;55.570;37.488;2022-12-18T05:53:31;98468.56;;;-5.66;86.53
74936;BME280;63501;55.570;37.488;2022-12-18T05:56:00;98473.94;;;-5.66;86.19
74936;BME280;63501;55.570;37.488;2022-12-18T05:58:25;98480.25;;;-5.70;86.30
74936;BME280;63501;55.570;37.488;2022-12-18T06:00:51;98492.28;;;-5.68;86.83
74936;BME280;63501;55.570;37.488;2022-12-18T06:03:17;98489.44;;;-5.71;85.72
74936;BME280;63501;55.570;37.488;2022-12-18T06:05:44;98502.56;;;-5.70;86.87
74936;BME280;63501;55.570;37.488;2022-12-18T06:08:11;98499.56;;;-5.68;86.29
74936;BME280;63501;55.570;37.488;2022-12-18T06:10:37;98512.25;;;-5.69;86.08
74936;BME280;63501;55.570;37.488;2022-12-18T06:13:03;98501.00;;;-5.71;86.03
74936;BME280;63501;55.570;37.488;2022-12-18T06:15:29;98508.75;;;-5.69;85.66
74936;BME280;63501;55.570;37.488;2022-12-18T06:17:54;98512.06;;;-5.72;85.47
74936;BME280;63501;55.570;37.488;2022-12-18T06:20:20;98517.16;;;-5.71;86.33
74936;BME280;63501;55.570;37.488;2022-12-18T06:22:46;98522.84;;;-5.72;85.94
74936;BME280;63501;55.570;37.488;2022-12-18T06:25:12;98525.53;;;-5.72;85.92
74936;BME280;63501;55.570;37.488;2022-12-18T06:27:39;98530.59;;;-5.71;85.86
74936;BME280;63501;55.570;37.488;2022-12-18T06:30:05;98536.59;;;-5.74;86.00
74936;BME280;63501;55.570;37.488;2022-12-18T06:32:31;98549.44;;;-5.71;85.47
74936;BME280;63501;55.570;37.488;2022-12-18T06:34:57;98557.84;;;-5.72;86.15
74936;BME280;63501;55.570;37.488;2022-12-18T06:37:23;98567.50;;;-5.71;85.97
74936;BME280;63501;55.570;37.488;2022-12-18T06:39:53;98584.94;;;-5.69;86.43
74936;BME280;63501;55.570;37.488;2022-12-18T06:42:18;98582.75;;;-5.67;86.24
74936;BME280;63501;55.570;37.488;2022-12-18T06:44:44;98579.88;;;-5.70;85.57
74936;BME280;63501;55.570;37.488;2022-12-18T06:47:10;98578.75;;;-5.69;85.44
74936;BME280;63501;55.570;37.488;2022-12-18T06:49:35;98592.69;;;-5.67;85.54
74936;BME280;63501;55.570;37.488;2022-12-18T06:52:01;98595.59;;;-5.64;86.05
74936;BME280;63501;55.570;37.488;2022-12-18T06:54:26;98599.38;;;-5.65;86.25
74936;BME280;63501;55.570;37.488;2022-12-18T06:56:52;98596.38;;;-5.63;86.25
74936;BME280;63501;55.570;37.488;2022-12-18T06:59:18;98594.31;;;-5.66;85.28
74936;BME280;63501;55.570;37.488;2022-12-18T07:01:44;98608.75;;;-5.62;86.06
74936;BME280;63501;55.570;37.488;2022-12-18T07:04:09;98611.16;;;-5.61;85.49
74936;BME280;63501;55.570;37.488;2022-12-18T07:06:35;98627.31;;;-5.61;85.05
74936;BME280;63501;55.570;37.488;2022-12-18T07:09:01;98622.41;;;-5.59;85.11
74936;BME280;63501;55.570;37.488;2022-12-18T07:11:26;98627.47;;;-5.57;86.00
74936;BME280;63501;55.570;37.488;2022-12-18T07:13:52;98638.44;;;-5.53;86.10
74936;BME280;63501;55.570;37.488;2022-12-18T07:16:20;98642.13;;;-5.49;85.61
74936;BME280;63501;55.570;37.488;2022-12-18T07:18:46;98647.53;;;-5.49;86.37
74936;BME280;63501;55.570;37.488;2022-12-18T07:21:14;98646.41;;;-5.48;85.97
74936;BME280;63501;55.570;37.488;2022-12-18T07:23:40;98646.09;;;-5.47;86.18
74936;BME280;63501;55.570;37.488;2022-12-18T07:26:11;98636.63;;;-5.44;86.16
74936;BME280;63501;55.570;37.488;2022-12-18T07:28:38;98638.81;;;-5.46;86.30
74936;BME280;63501;55.570;37.488;2022-12-18T07:31:05;98644.72;;;-5.44;85.15
74936;BME280;63501;55.570;37.488;2022-12-18T07:33:33;98646.56;;;-5.45;85.89
74936;BME280;63501;55.570;37.488;2022-12-18T07:35:59;98652.59;;;-5.48;84.67
74936;BME280;63501;55.570;37.488;2022-12-18T07:38:25;98644.03;;;-5.50;84.88
74936;BME280;63501;55.570;37.488;2022-12-18T07:40:51;98661.47;;;-5.47;84.77
74936;BME280;63501;55.570;37.488;2022-12-18T07:43:16;98672.25;;;-5.47;84.28
74936;BME280;63501;55.570;37.488;2022-12-18T07:45:43;98650.31;;;-5.54;84.30
74936;BME280;63501;55.570;37.488;2022-12-18T07:48:08;98665.44;;;-5.45;85.64
74936;BME280;63501;55.570;37.488;2022-12-18T07:50:34;98674.34;;;-5.44;85.54
74936;BME280;63501;55.570;37.488;2022-12-18T07:53:00;98675.94;;;-5.43;85.69
74936;BME280;63501;55.570;37.488;2022-12-18T07:55:30;98682.09;;;-5.43;84.88
74936;BME280;63501;55.570;37.488;2022-12-18T07:57:55;98688.78;;;-5.40;85.51
74936;BME280;63501;55.570;37.488;2022-12-18T08:00:21;98685.59;;;-5.42;85.40
74936;BME280;63501;55.570;37.488;2022-12-18T08:02:47;98693.38;;;-5.41;85.02
74936;BME280;63501;55.570;37.488;2022-12-18T08:05:12;98714.91;;;-5.41;84.71
74936;BME280;63501;55.570;37.488;2022-12-18T08:07:39;98714.13;;;-5.41;83.70
74936;BME280;63501;55.570;37.488;2022-12-18T08:10:05;98716.34;;;-5.43;84.39
74936;BME280;63501;55.570;37.488;2022-12-18T08:12:31;98723.50;;;-5.39;83.71
74936;BME280;63501;55.570;37.488;2022-12-18T08:14:57;98716.50;;;-5.40;84.58
74936;BME280;63501;55.570;37.488;2022-12-18T08:17:22;98715.13;;;-5.37;85.05
74936;BME280;63501;55.570;37.488;2022-12-18T08:19:48;98721.28;;;-5.37;84.45
74936;BME280;63501;55.570;37.488;2022-12-18T08:22:14;98733.47;;;-5.39;84.31
74936;BME280;63501;55.570;37.488;2022-12-18T08:24:39;98735.88;;;-5.38;84.79
74936;BME280;63501;55.570;37.488;2022-12-18T08:27:05;98745.53;;;-5.37;83.98
74936;BME280;63501;55.570;37.488;2022-12-18T08:29:30;98753.94;;;-5.38;83.75
74936;BME280;63501;55.570;37.488;2022-12-18T08:31:57;98752.03;;;-5.38;84.37
74936;BME280;63501;55.570;37.488;2022-12-18T08:34:23;98750.44;;;-5.39;84.29
74936;BME280;63501;55.570;37.488;2022-12-18T08:36:48;98745.22;;;-5.35;84.42
74936;BME280;63501;55.570;37.488;2022-12-18T08:39:14;98750.63;;;-5.35;83.87
74936;BME280;63501;55.570;37.488;2022-12-18T08:41:39;98758.72;;;-5.35;83.99
74936;BME280;63501;55.570;37.488;2022-12-18T08:44:07;98748.72;;;-5.35;83.85
74936;BME280;63501;55.570;37.488;2022-12-18T08:46:51;98742.53;;;-5.35;83.66
74936;BME280;63501;55.570;37.488;2022-12-18T08:49:17;98737.16;;;-5.35;83.57
74936;BME280;63501;55.570;37.488;2022-12-18T08:51:42;98750.63;;;-5.35;83.20
74936;BME280;63501;55.570;37.488;2022-12-18T08:54:13;98739.84;;;-5.35;83.45
74936;BME280;63501;55.570;37.488;2022-12-18T08:56:39;98745.44;;;-5.32;83.40
74936;BME280;63501;55.570;37.488;2022-12-18T08:59:05;98752.72;;;-5.32;83.92
74936;BME280;63501;55.570;37.488;2022-12-18T09:01:30;98767.97;;;-5.27;84.03
74936;BME280;63501;55.570;37.488;2022-12-18T09:03:56;98768.94;;;-5.23;83.38
74936;BME280;63501;55.570;37.488;2022-12-18T09:06:22;98781.03;;;-5.21;84.42
74936;BME280;63501;55.570;37.488;2022-12-18T09:08:48;98794.50;;;-5.21;83.75
74936;BME280;63501;55.570;37.488;2022-12-18T09:11:19;98797.50;;;-5.22;82.50
74936;BME280;63501;55.570;37.488;2022-12-18T09:13:46;98792.91;;;-5.22;84.02
74936;BME280;63501;55.570;37.488;2022-12-18T09:16:11;98796.28;;;-5.16;83.46
74936;BME280;63501;55.570;37.488;2022-12-18T09:18:37;98797.88;;;-5.15;83.72
74936;BME280;63501;55.570;37.488;2022-12-18T09:21:10;98809.94;;;-5.13;83.35
74936;BME280;63501;55.570;37.488;2022-12-18T09:23:36;98811.53;;;-5.12;84.50
74936;BME280;63501;55.570;37.488;2022-12-18T09:26:02;98821.84;;;-5.14;83.16
74936;BME280;63501;55.570;37.488;2022-12-18T09:28:28;98814.22;;;-5.12;83.42
74936;BME280;63501;55.570;37.488;2022-12-18T09:30:53;98822.03;;;-5.10;83.72
74936;BME280;63501;55.570;37.488;2022-12-18T09:33:19;98827.13;;;-5.09;83.67
74936;BME280;63501;55.570;37.488;2022-12-18T09:35:45;98822.22;;;-5.07;84.40
74936;BME280;63501;55.570;37.488;2022-12-18T09:38:13;98837.28;;;-5.06;84.13
74936;BME280;63501;55.570;37.488;2022-12-18T09:40:42;98845.88;;;-5.03;84.05
74936;BME280;63501;55.570;37.488;2022-12-18T09:43:24;98836.69;;;-5.02;83.94
74936;BME280;63501;55.570;37.488;2022-12-18T09:45:56;98834.97;;;-4.98;84.25
74936;BME280;63501;55.570;37.488;2022-12-18T09:48:32;98838.28;;;-5.01;84.26
74936;BME280;63501;55.570;37.488;2022-12-18T09:51:04;98831.19;;;-4.97;83.98
74936;BME280;63501;55.570;37.488;2022-12-18T09:53:33;98848.63;;;-4.95;83.84
74936;BME280;63501;55.570;37.488;2022-12-18T09:56:02;98839.63;;;-4.90;83.10
74936;BME280;63501;55.570;37.488;2022-12-18T09:58:34;98835.34;;;-4.91;84.19
74936;BME280;63501;55.570;37.488;2022-12-18T10:01:01;98843.94;;;-4.89;84.04
74936;BME280;63501;55.570;37.488;2022-12-18T10:03:27;98852.53;;;-4.87;84.24
74936;BME280;63501;55.570;37.488;2022-12-18T10:06:11;98848.72;;;-4.86;84.27
74936;BME280;63501;55.570;37.488;2022-12-18T10:11:27;98854.59;;;-4.84;83.88
74936;BME280;63501;55.570;37.488;2022-12-18T10:19:43;98848.41;;;-4.85;84.22
74936;BME280;63501;55.570;37.488;2022-12-18T10:25:01;98859.09;;;-4.80;84.20
74936;BME280;63501;55.570;37.488;2022-12-18T10:27:30;98847.81;;;-4.82;84.00
74936;BME280;63501;55.570;37.488;2022-12-18T10:29:57;98844.81;;;-4.80;84.50
74936;BME280;63501;55.570;37.488;2022-12-18T10:32:25;98856.69;;;-4.81;83.83
74936;BME280;63501;55.570;37.488;2022-12-18T10:34:55;98864.47;;;-4.80;84.10
74936;BME280;63501;55.570;37.488;2022-12-18T10:37:24;98860.50;;;-4.82;83.54
74936;BME280;63501;55.570;37.488;2022-12-18T10:40:12;98870.66;;;-4.79;84.55
74936;BME280;63501;55.570;37.488;2022-12-18T10:42:39;98885.75;;;-4.78;84.42
74936;BME280;63501;55.570;37.488;2022-12-18T10:45:16;98884.94;;;-4.79;84.01
74936;BME280;63501;55.570;37.488;2022-12-18T10:47:47;98895.41;;;-4.77;84.29
74936;BME280;63501;55.570;37.488;2022-12-18T10:50:32;98910.81;;;-4.78;84.33
74936;BME280;63501;55.570;37.488;2022-12-18T10:53:03;98921.59;;;-4.78;84.09
74936;BME280;63501;55.570;37.488;2022-12-18T10:55:37;98931.59;;;-4.78;84.37
74936;BME280;63501;55.570;37.488;2022-12-18T11:06:32;98933.59;;;-4.84;84.31
74936;BME280;63501;55.570;37.488;2022-12-18T11:09:00;98916.31;;;-4.83;84.52
74936;BME280;63501;55.570;37.488;2022-12-18T11:11:26;98921.53;;;-4.86;84.01
74936;BME280;63501;55.570;37.488;2022-12-18T11:16:28;98923.13;;;-4.85;84.41
74936;BME280;63501;55.570;37.488;2022-12-18T11:19:12;98923.72;;;-4.88;84.30
74936;BME280;63501;55.570;37.488;2022-12-18T11:21:40;98921.63;;;-4.91;84.37
74936;BME280;63501;55.570;37.488;2022-12-18T11:24:18;98928.13;;;-4.92;84.17
74936;BME280;63501;55.570;37.488;2022-12-18T11:26:44;98933.00;;;-4.94;84.56
74936;BME280;63501;55.570;37.488;2022-12-18T11:29:16;98946.22;;;-4.93;85.15
74936;BME280;63501;55.570;37.488;2022-12-18T11:31:42;98951.88;;;-4.94;84.00
74936;BME280;63501;55.570;37.488;2022-12-18T11:34:16;98952.19;;;-4.96;84.56
74936;BME280;63501;55.570;37.488;2022-12-18T11:36:46;98947.59;;;-4.95;84.75
74936;BME280;63501;55.570;37.488;2022-12-18T11:42:05;98957.69;;;-5.01;84.72
74936;BME280;63501;55.570;37.488;2022-12-18T11:44:45;98982.16;;;-4.97;83.97
74936;BME280;63501;55.570;37.488;2022-12-18T11:49:42;98983.84;;;-5.01;84.04
74936;BME280;63501;55.570;37.488;2022-12-18T11:52:18;98994.31;;;-5.00;84.39
74936;BME280;63501;55.570;37.488;2022-12-18T11:54:46;98997.31;;;-5.01;84.77
74936;BME280;63501;55.570;37.488;2022-12-18T12:00:19;99002.72;;;-5.01;85.48
74936;BME280;63501;55.570;37.488;2022-12-18T12:23:28;99053.00;;;-5.11;84.40
74936;BME280;63501;55.570;37.488;2022-12-18T12:26:18;99049.25;;;-5.10;85.21
74936;BME280;63501;55.570;37.488;2022-12-18T12:31:39;99067.00;;;-5.09;85.16
74936;BME280;63501;55.570;37.488;2022-12-18T12:34:34;99070.50;;;-5.08;84.92
74936;BME280;63501;55.570;37.488;2022-12-18T12:37:32;99075.41;;;-5.10;85.09
74936;BME280;63501;55.570;37.488;2022-12-18T12:40:03;99078.38;;;-5.12;84.99
74936;BME280;63501;55.570;37.488;2022-12-18T12:42:33;99081.06;;;-5.12;85.04
74936;BME280;63501;55.570;37.488;2022-12-18T12:45:44;99083.59;;;-5.15;84.96
74936;BME280;63501;55.570;37.488;2022-12-18T12:51:29;99097.56;;;-5.13;84.79
74936;BME280;63501;55.570;37.488;2022-12-18T12:53:57;99101.34;;;-5.14;84.98
74936;BME280;63501;55.570;37.488;2022-12-18T12:56:27;99107.53;;;-5.14;85.20
74936;BME280;63501;55.570;37.488;2022-12-18T12:59:10;99119.41;;;-5.15;84.60
74936;BME280;63501;55.570;37.488;2022-12-18T13:02:17;99117.81;;;-5.16;84.81
74936;BME280;63501;55.570;37.488;2022-12-18T13:04:52;99116.72;;;-5.15;85.14
74936;BME280;63501;55.570;37.488;2022-12-18T13:07:29;99125.31;;;-5.13;85.45
74936;BME280;63501;55.570;37.488;2022-12-18T13:20:37;99139.88;;;-5.14;85.28
74936;BME280;63501;55.570;37.488;2022-12-18T13:30:51;99166.53;;;-5.12;85.97
74936;BME280;63501;55.570;37.488;2022-12-18T13:38:38;99178.41;;;-5.13;85.61
74936;BME280;63501;55.570;37.488;2022-12-18T13:43:49;99202.38;;;-5.12;85.85
74936;BME280;63501;55.570;37.488;2022-12-18T13:46:21;99210.75;;;-5.13;85.88
74936;BME280;63501;55.570;37.488;2022-12-18T13:51:51;99223.13;;;-5.12;85.97
74936;BME280;63501;55.570;37.488;2022-12-18T13:54:39;99224.25;;;-5.13;85.71
74936;BME280;63501;55.570;37.488;2022-12-18T13:57:12;99227.72;;;-5.13;86.25
74936;BME280;63501;55.570;37.488;2022-12-18T13:59:50;99233.63;;;-5.11;85.82
74936;BME280;63501;55.570;37.488;2022-12-18T14:02:20;99235.25;;;-5.10;86.43
74936;BME280;63501;55.570;37.488;2022-12-18T14:04:47;99239.84;;;-5.10;85.76
74936;BME280;63501;55.570;37.488;2022-12-18T14:07:16;99238.50;;;-5.13;85.44
74936;BME280;63501;55.570;37.488;2022-12-18T14:09:45;99251.91;;;-5.08;86.01
74936;BME280;63501;55.570;37.488;2022-12-18T14:12:21;99250.81;;;-5.07;86.27
74936;BME280;63501;55.570;37.488;2022-12-18T14:18:03;99259.19;;;-5.08;85.95
74936;BME280;63501;55.570;37.488;2022-12-18T14:20:34;99275.88;;;-5.06;86.36
74936;BME280;63501;55.570;37.488;2022-12-18T14:23:00;99278.31;;;-5.04;86.35
74936;BME280;63501;55.570;37.488;2022-12-18T14:25:28;99282.88;;;-5.05;85.84
74936;BME280;63501;55.570;37.488;2022-12-18T14:28:13;99284.75;;;-5.06;86.04
74936;BME280;63501;55.570;37.488;2022-12-18T14:30:44;99288.00;;;-5.03;86.39
74936;BME280;63501;55.570;37.488;2022-12-18T14:33:18;99301.97;;;-5.01;87.04
74936;BME280;63501;55.570;37.488;2022-12-18T14:36:03;99305.25;;;-5.04;86.70
74936;BME280;63501;55.570;37.488;2022-12-18T14:38:35;99312.75;;;-5.01;86.56
74936;BME280;63501;55.570;37.488;2022-12-18T14:41:04;99303.88;;;-5.02;87.43
74936;BME280;63501;55.570;37.488;2022-12-18T14:43:33;99313.56;;;-5.01;87.00
74936;BME280;63501;55.570;37.488;2022-12-18T14:46:00;99326.22;;;-5.01;86.95
74936;BME280;63501;55.570;37.488;2022-12-18T14:48:39;99320.53;;;-5.00;86.77
74936;BME280;63501;55.570;37.488;2022-12-18T14:53:43;99331.63;;;-5.01;85.55
74936;BME280;63501;55.570;37.488;2022-12-18T14:56:22;99344.00;;;-5.00;86.33
74936;BME280;63501;55.570;37.488;2022-12-18T14:58:53;99347.50;;;-5.00;85.91
74936;BME280;63501;55.570;37.488;2022-12-18T15:03:46;99362.88;;;-5.00;85.59